Accueil
METAR-TAF:

METAR-TAF

Aéroports :

Algésiras, Espagne

latitude: 36-07-44N, longitude: 05-26-28W, altitude: 30 m

Observation

Le bulletin a été fait il y a 33 minutes, à 15:00 UTC
Vent 16 kt de est
Température 16°C
Humidité 94%
Pression 1021 hPa
Visibilité 10 km ou plus
Nuages fragmentés à une hauteur de 2400 ft

METAR: LEAG 081500Z AUTO 08016KT 9999 BKN024 16/15 Q1021

Heure: 17:33 (15:33 UTC)


TAF: absent

Observations et prévisions météorologiques de plus de 4000 aéroports (messages METAR et TAF).

Les stations disponibles sont représentées par des disques jaunes et rouges sur la carte.

Passer la souris dessus pour voir le nom de la station.

Cliquer dessus pour voir les observations et prévisions météorologiques.

Pour changer de carte: cliquez sur les boutons verts avec une croix noire pour zoomer, sur le bouton vert avec un tiret pour effectuer un zoom arrière, ou sur les flèches vertes pour les cartes adjacentes.


METAR-TAF: